KAGC

Allegheny County Airport

Pittsburgh, Pennsylvania, USA
METAR KAGC 181351Z AUTO 27006KT 4SM BR OVC005 01/01 A3003 RMK AO2 UPB35E37SNB00E35 P0000
Observed Flight Rules
Jan-18 @ 13:51 UTC (13 minutes ago) Instrument Flight Rules
Wind Visibility Clouds Conditions
270° at 6 knots 4 miles
  • Overcast at 500' AGL
  • Mist
Temperatures Readings Precipitation
Current 1°C / 34°F
Dewpoint 1°C / 34°F
Humidity 100%
Altimeter 30.03" Hg
Pressure 1016.92 hPa
Elevation 389
Current Rain 0.01
METAR KAGC 181351Z AUTO 27006KT 4SM BR OVC005 01/01 A3003 RMK AO2 UPB35E37SNB00E35 P0000
Observed Flight Rules
Jan-18 @ 13:51 UTC
(13 minutes ago)
IFR
Wind Visibility
270° at 6 knots 4 miles
Clouds
  • Overcast at 500' AGL
Conditions
  • Mist
Temperature Dewpoint
1°C / 34°F 1°C / 34°F
Humidity Altimeter Pressure
100% 30.03" Hg 1016.92 hPa
Current Rain
0.01